createdAt,value
2018-12-14T00:02:31.602Z,-2.90
2018-12-14T00:05:06.361Z,-2.90
2018-12-14T00:07:40.992Z,-2.90
2018-12-14T00:10:15.791Z,-3.00
2018-12-14T00:12:51.695Z,-3.00
2018-12-14T00:15:26.452Z,-3.10
2018-12-14T00:18:01.272Z,-3.20
2018-12-14T00:20:38.219Z,-3.30
2018-12-14T00:25:56.945Z,-3.50
2018-12-14T00:28:31.984Z,-3.60
2018-12-14T00:31:06.953Z,-3.70
2018-12-14T00:33:42.719Z,-3.80
2018-12-14T00:39:03.126Z,-3.90
2018-12-14T00:41:39.105Z,-4.00
2018-12-14T00:44:14.139Z,-4.10
2018-12-14T00:49:38.048Z,-4.20
2018-12-14T00:52:13.026Z,-4.30
2018-12-14T00:54:51.642Z,-4.40
2018-12-14T00:57:26.693Z,-4.40
2018-12-14T01:00:01.649Z,-4.50
2018-12-14T01:02:36.702Z,-4.60
2018-12-14T01:05:11.700Z,-4.70
2018-12-14T01:07:46.226Z,-4.80
2018-12-14T01:10:21.219Z,-4.80
2018-12-14T01:12:55.923Z,-4.80
2018-12-14T01:15:30.692Z,-4.90
2018-12-14T01:18:05.283Z,-4.90
2018-12-14T01:20:40.067Z,-5.00
2018-12-14T01:23:15.188Z,-5.00
2018-12-14T01:25:49.979Z,-5.00
2018-12-14T01:28:24.865Z,-5.10
2018-12-14T01:30:59.933Z,-5.20
2018-12-14T01:33:34.885Z,-5.20
2018-12-14T01:36:09.517Z,-5.30
2018-12-14T01:38:44.381Z,-5.30
2018-12-14T01:41:19.516Z,-5.30
2018-12-14T01:43:54.360Z,-5.30
2018-12-14T01:46:28.808Z,-5.30
2018-12-14T01:49:03.536Z,-5.30
2018-12-14T01:51:38.560Z,-5.40
2018-12-14T01:54:13.655Z,-5.30
2018-12-14T01:56:48.538Z,-5.30
2018-12-14T01:59:23.076Z,-5.30
2018-12-14T02:01:57.930Z,-5.30
2018-12-14T02:04:32.690Z,-5.40
2018-12-14T02:07:07.433Z,-5.30
2018-12-14T02:09:42.143Z,-5.40
2018-12-14T02:12:17.051Z,-5.40
2018-12-14T02:14:51.651Z,-5.40
2018-12-14T02:17:26.347Z,-5.50
2018-12-14T02:20:01.198Z,-5.40
2018-12-14T02:22:36.257Z,-5.40
2018-12-14T02:25:11.089Z,-5.50
2018-12-14T02:27:45.855Z,-5.40
2018-12-14T02:30:44.172Z,-5.40
2018-12-14T02:33:18.845Z,-5.40
2018-12-14T02:35:53.759Z,-5.50
2018-12-14T02:38:28.509Z,-5.50
2018-12-14T02:41:03.644Z,-5.50
2018-12-14T02:43:38.453Z,-5.60
2018-12-14T02:46:13.240Z,-5.60
2018-12-14T02:48:47.943Z,-5.70
2018-12-14T02:51:22.867Z,-5.70
2018-12-14T02:53:57.566Z,-5.80
2018-12-14T02:56:32.132Z,-5.80
2018-12-14T02:59:06.728Z,-5.80
2018-12-14T03:01:41.474Z,-5.80
2018-12-14T03:04:16.394Z,-5.80
2018-12-14T03:06:51.262Z,-5.80
2018-12-14T03:09:25.829Z,-5.90
2018-12-14T03:12:00.483Z,-5.90
2018-12-14T03:14:35.019Z,-5.90
2018-12-14T03:17:09.976Z,-6.00
2018-12-14T03:19:44.846Z,-6.00
2018-12-14T03:22:20.193Z,-6.00
2018-12-14T03:24:54.944Z,-6.00
2018-12-14T03:27:29.625Z,-6.00
2018-12-14T03:30:04.979Z,-6.00
2018-12-14T03:32:39.988Z,-5.90
2018-12-14T03:35:14.730Z,-5.90
2018-12-14T03:37:49.291Z,-5.90
2018-12-14T03:40:24.197Z,-5.80
2018-12-14T03:42:58.759Z,-5.80
2018-12-14T03:45:33.610Z,-5.80
2018-12-14T03:48:08.607Z,-5.80
2018-12-14T03:50:43.287Z,-5.70
2018-12-14T03:53:18.181Z,-5.70
2018-12-14T03:55:52.808Z,-5.70
2018-12-14T03:58:27.554Z,-5.70
2018-12-14T04:01:02.428Z,-5.70
2018-12-14T04:03:37.243Z,-5.70
2018-12-14T04:06:12.109Z,-5.70
2018-12-14T04:08:47.130Z,-5.70
2018-12-14T04:11:22.101Z,-5.70
2018-12-14T04:13:56.893Z,-5.70
2018-12-14T04:16:31.641Z,-5.80
2018-12-14T04:19:06.447Z,-5.80
2018-12-14T04:21:41.305Z,-5.90
2018-12-14T04:24:16.336Z,-5.90
2018-12-14T04:26:51.055Z,-5.90
2018-12-14T04:29:25.882Z,-5.90
2018-12-14T04:32:00.552Z,-5.90
2018-12-14T04:34:35.341Z,-5.90
2018-12-14T04:37:10.433Z,-5.90
2018-12-14T04:39:45.285Z,-5.80
2018-12-14T04:42:19.772Z,-5.80
2018-12-14T04:44:54.470Z,-5.80
2018-12-14T04:47:29.531Z,-5.80
2018-12-14T04:52:47.745Z,-5.80
2018-12-14T04:55:23.978Z,-5.70
2018-12-14T04:57:58.810Z,-5.70
2018-12-14T05:00:34.806Z,-5.70
2018-12-14T05:03:14.223Z,-5.60
2018-12-14T05:05:49.525Z,-5.60
2018-12-14T05:08:24.834Z,-5.60
2018-12-14T05:10:59.777Z,-5.50
2018-12-14T05:13:35.482Z,-5.50
2018-12-14T05:19:00.767Z,-5.50
2018-12-14T05:21:35.597Z,-5.40
2018-12-14T05:24:10.099Z,-5.30
2018-12-14T05:26:46.058Z,-5.20
2018-12-14T05:29:20.916Z,-5.20
2018-12-14T05:31:55.746Z,-5.10
2018-12-14T05:34:30.923Z,-5.00
2018-12-14T05:37:07.554Z,-4.90
2018-12-14T05:39:45.253Z,-4.90
2018-12-14T05:42:21.328Z,-4.80
2018-12-14T05:44:57.443Z,-4.70
2018-12-14T05:47:32.836Z,-4.70
2018-12-14T05:50:10.552Z,-4.60
2018-12-14T05:52:46.473Z,-4.50
2018-12-14T05:55:28.122Z,-4.40
2018-12-14T05:58:05.461Z,-4.40
2018-12-14T06:00:40.419Z,-4.30
2018-12-14T06:03:15.941Z,-4.20
2018-12-14T06:08:35.608Z,-4.20
2018-12-14T06:11:15.413Z,-4.20
2018-12-14T06:13:55.582Z,-4.10
2018-12-14T06:16:34.178Z,-4.10
2018-12-14T06:19:10.555Z,-4.10
2018-12-14T06:21:45.319Z,-4.00
2018-12-14T06:24:21.901Z,-3.90
2018-12-14T06:26:57.466Z,-3.90
2018-12-14T06:29:33.589Z,-3.80
2018-12-14T06:34:53.652Z,-3.70
2018-12-14T06:40:15.376Z,-3.70
2018-12-14T06:42:51.492Z,-3.70
2018-12-14T06:45:27.693Z,-3.70
2018-12-14T06:48:02.710Z,-3.70
2018-12-14T06:50:37.949Z,-3.70
2018-12-14T06:53:13.153Z,-3.80
2018-12-14T06:58:34.497Z,-3.70
2018-12-14T07:01:10.811Z,-3.70
2018-12-14T07:03:48.397Z,-3.80
2018-12-14T07:06:25.116Z,-3.90
2018-12-14T07:09:00.381Z,-3.90
2018-12-14T07:11:37.498Z,-3.80
2018-12-14T07:14:12.963Z,-3.80
2018-12-14T07:16:48.631Z,-3.70
2018-12-14T07:19:24.100Z,-3.70
2018-12-14T07:21:59.355Z,-3.80
2018-12-14T07:24:35.596Z,-3.80
2018-12-14T07:27:11.943Z,-3.80
2018-12-14T07:29:47.362Z,-3.80
2018-12-14T07:32:22.382Z,-3.80
2018-12-14T07:34:57.109Z,-3.70
2018-12-14T07:40:16.201Z,-3.60
2018-12-14T07:42:50.959Z,-3.60
2018-12-14T07:45:25.689Z,-3.50
2018-12-14T07:48:00.297Z,-3.50
2018-12-14T07:50:35.471Z,-3.40
2018-12-14T07:53:10.611Z,-3.40
2018-12-14T07:55:45.273Z,-3.30
2018-12-14T07:58:20.322Z,-3.30
2018-12-14T08:00:54.933Z,-3.20
2018-12-14T08:03:29.547Z,-3.20
2018-12-14T08:06:04.377Z,-3.10
2018-12-14T08:08:39.161Z,-3.00
2018-12-14T08:11:14.101Z,-3.00
2018-12-14T08:13:48.821Z,-2.90
2018-12-14T08:16:23.516Z,-2.90
2018-12-14T08:18:58.432Z,-2.80
2018-12-14T08:21:33.561Z,-2.80
2018-12-14T08:24:08.354Z,-2.80
2018-12-14T08:26:43.089Z,-2.80
2018-12-14T08:29:17.765Z,-2.80
2018-12-14T08:31:52.490Z,-2.70
2018-12-14T08:34:27.328Z,-2.60
2018-12-14T08:37:02.115Z,-2.50
2018-12-14T08:39:37.018Z,-2.50
2018-12-14T08:42:12.139Z,-2.40
2018-12-14T08:44:46.667Z,-2.30
2018-12-14T08:47:21.333Z,-2.20
2018-12-14T08:49:56.179Z,-2.20
2018-12-14T08:52:30.886Z,-2.10
2018-12-14T08:55:05.724Z,-2.00
2018-12-14T08:57:40.378Z,-1.90
2018-12-14T09:00:15.159Z,-1.80
2018-12-14T09:02:50.079Z,-1.70
2018-12-14T09:05:24.874Z,-1.70
2018-12-14T09:07:59.651Z,-1.80
2018-12-14T09:10:34.458Z,-1.80
2018-12-14T09:13:09.387Z,-1.80
2018-12-14T09:15:45.413Z,-1.70
2018-12-14T09:18:20.386Z,-1.70
2018-12-14T09:21:00.899Z,-1.70
2018-12-14T09:23:32.160Z,-1.60
2018-12-14T09:26:07.135Z,-1.60
2018-12-14T09:28:42.477Z,-1.60
2018-12-14T09:31:18.435Z,-1.60
2018-12-14T09:33:53.232Z,-1.60
2018-12-14T09:36:28.389Z,-1.50
2018-12-14T09:39:04.756Z,-1.50
2018-12-14T09:41:39.599Z,-1.40
2018-12-14T09:44:14.429Z,-1.40
2018-12-14T09:46:49.418Z,-1.30
2018-12-14T09:49:24.510Z,-1.30
2018-12-14T09:51:59.341Z,-1.20
2018-12-14T09:54:34.215Z,-1.20
2018-12-14T09:57:09.207Z,-1.20
2018-12-14T09:59:44.197Z,-1.10
2018-12-14T10:02:19.039Z,-1.00
2018-12-14T10:04:53.921Z,-0.90
2018-12-14T10:10:14.227Z,-0.90
2018-12-14T10:12:49.407Z,-1.00
2018-12-14T10:15:24.562Z,-1.00
2018-12-14T10:17:59.718Z,-1.00
2018-12-14T10:20:35.034Z,-1.00
2018-12-14T10:23:11.267Z,-1.10
2018-12-14T10:25:46.235Z,-1.10
2018-12-14T10:28:21.486Z,-1.10
2018-12-14T10:30:56.248Z,-1.00
2018-12-14T10:33:31.044Z,-1.00
2018-12-14T10:36:06.092Z,-1.00
2018-12-14T10:38:40.825Z,-0.90
2018-12-14T10:41:15.975Z,-1.00
2018-12-14T10:43:51.239Z,-1.00
2018-12-14T10:46:25.966Z,-0.90
2018-12-14T10:49:00.894Z,-0.90
2018-12-14T10:51:36.051Z,-0.90
2018-12-14T10:54:11.939Z,-0.80
2018-12-14T10:56:47.173Z,-0.80
2018-12-14T10:59:22.038Z,-0.70
2018-12-14T11:01:57.117Z,-0.60
2018-12-14T11:04:33.125Z,-0.60
2018-12-14T11:07:08.399Z,-0.50
2018-12-14T11:09:44.481Z,-0.40
2018-12-14T11:12:19.563Z,-0.30
2018-12-14T11:14:54.362Z,-0.20
2018-12-14T11:17:29.445Z,-0.20
2018-12-14T11:20:04.915Z,-0.10
2018-12-14T11:22:39.779Z,0.00
2018-12-14T11:25:15.159Z,0.10
2018-12-14T11:27:51.019Z,0.20
2018-12-14T11:30:25.889Z,0.30
2018-12-14T11:33:01.259Z,0.40
2018-12-14T11:35:36.369Z,0.50
2018-12-14T11:38:11.512Z,0.60
2018-12-14T11:40:46.495Z,0.60
2018-12-14T11:43:21.588Z,0.60
2018-12-14T11:45:56.465Z,0.50
2018-12-14T11:48:31.277Z,0.50
2018-12-14T11:51:06.765Z,0.50
2018-12-14T11:53:41.760Z,0.40
2018-12-14T11:56:17.031Z,0.50
2018-12-14T11:58:51.932Z,0.40
2018-12-14T12:01:27.237Z,0.40
2018-12-14T12:04:02.117Z,0.40
2018-12-14T12:06:37.443Z,0.40
2018-12-14T12:09:13.032Z,0.40
2018-12-14T12:11:48.138Z,0.40
2018-12-14T12:14:26.960Z,0.30
2018-12-14T12:16:59.977Z,0.20
2018-12-14T12:19:34.800Z,0.10
2018-12-14T12:22:09.688Z,0.00
2018-12-14T12:24:44.766Z,-0.10
2018-12-14T12:27:22.382Z,0.00
2018-12-14T12:29:57.970Z,0.00
2018-12-14T12:32:32.859Z,0.00
2018-12-14T12:35:08.166Z,-0.10
2018-12-14T12:37:43.431Z,-0.10
2018-12-14T12:40:18.111Z,-0.10
2018-12-14T12:42:52.628Z,-0.10
2018-12-14T12:45:28.676Z,-0.10
2018-12-14T12:48:04.878Z,-0.10
2018-12-14T12:50:39.568Z,-0.20
2018-12-14T12:53:16.281Z,-0.20
2018-12-14T12:55:51.207Z,-0.20
2018-12-14T12:58:26.064Z,-0.20
2018-12-14T13:01:00.811Z,-0.20
2018-12-14T13:03:35.645Z,-0.20
2018-12-14T13:06:10.187Z,-0.20
2018-12-14T13:08:45.022Z,-0.20
2018-12-14T13:11:20.309Z,-0.20
2018-12-14T13:13:55.269Z,-0.30
2018-12-14T13:16:30.316Z,-0.30
2018-12-14T13:19:05.437Z,-0.30
2018-12-14T13:21:40.309Z,-0.30
2018-12-14T13:24:15.020Z,-0.30
2018-12-14T13:26:49.877Z,-0.20
2018-12-14T13:29:24.698Z,-0.20
2018-12-14T13:31:59.569Z,-0.20
2018-12-14T13:34:35.805Z,-0.20
2018-12-14T13:37:10.988Z,-0.20
2018-12-14T13:39:46.364Z,-0.20
2018-12-14T13:42:22.071Z,-0.30
2018-12-14T13:44:57.459Z,-0.30
2018-12-14T13:47:32.709Z,-0.30
2018-12-14T13:50:07.908Z,-0.30
2018-12-14T13:52:43.007Z,-0.40
2018-12-14T13:55:18.015Z,-0.50
2018-12-14T13:57:53.054Z,-0.50
2018-12-14T14:00:28.478Z,-0.50
2018-12-14T14:03:03.669Z,-0.40
2018-12-14T14:05:38.613Z,-0.50
2018-12-14T14:08:13.489Z,-0.50
2018-12-14T14:10:48.462Z,-0.50
2018-12-14T14:13:23.264Z,-0.40
2018-12-14T14:15:58.307Z,-0.40
2018-12-14T14:18:33.541Z,-0.50
2018-12-14T14:21:08.597Z,-0.60
2018-12-14T14:23:43.569Z,-0.60
2018-12-14T14:26:18.687Z,-0.50
2018-12-14T14:28:56.127Z,-0.50
2018-12-14T14:31:35.056Z,-0.60
2018-12-14T14:34:09.651Z,-0.60
2018-12-14T14:36:47.719Z,-0.60
2018-12-14T14:39:23.499Z,-0.60
2018-12-14T14:41:58.825Z,-0.60
2018-12-14T14:44:33.611Z,-0.70
2018-12-14T14:47:08.519Z,-0.80
2018-12-14T14:49:43.375Z,-0.80
2018-12-14T14:52:18.430Z,-0.80
2018-12-14T14:54:53.503Z,-0.90
2018-12-14T14:57:29.155Z,-0.90
2018-12-14T15:00:05.410Z,-0.90
2018-12-14T15:02:40.262Z,-0.90
2018-12-14T15:05:15.191Z,-1.00
2018-12-14T15:07:49.946Z,-1.00
2018-12-14T15:10:24.838Z,-0.90
2018-12-14T15:12:59.875Z,-0.90
2018-12-14T15:15:34.507Z,-0.90
2018-12-14T15:18:09.309Z,-0.90
2018-12-14T15:20:44.147Z,-0.90
2018-12-14T15:23:19.001Z,-1.00
2018-12-14T15:25:53.877Z,-1.00
2018-12-14T15:28:28.876Z,-1.00
2018-12-14T15:31:03.803Z,-1.00
2018-12-14T15:33:38.636Z,-1.00
2018-12-14T15:36:13.327Z,-1.00
2018-12-14T15:38:48.167Z,-1.00
2018-12-14T15:41:22.817Z,-1.00
2018-12-14T15:43:57.455Z,-1.00
2018-12-14T15:46:32.119Z,-1.00
2018-12-14T15:49:07.597Z,-1.00
2018-12-14T15:51:42.185Z,-1.00
2018-12-14T15:54:16.896Z,-1.00
2018-12-14T15:56:51.935Z,-1.00
2018-12-14T15:59:26.782Z,-1.00
2018-12-14T16:02:01.756Z,-1.00
2018-12-14T16:04:36.430Z,-1.00
2018-12-14T16:07:11.288Z,-1.00
2018-12-14T16:09:46.209Z,-1.00
2018-12-14T16:12:21.129Z,-1.10
2018-12-14T16:14:55.939Z,-1.10
2018-12-14T16:17:30.845Z,-1.00
2018-12-14T16:20:07.207Z,-1.00
2018-12-14T16:22:42.041Z,-1.00
2018-12-14T16:25:16.985Z,-1.00
2018-12-14T16:27:51.926Z,-1.00
2018-12-14T16:30:26.783Z,-1.00
2018-12-14T16:33:01.510Z,-0.90
2018-12-14T16:35:36.323Z,-1.00
2018-12-14T16:38:11.274Z,-0.90
2018-12-14T16:40:46.120Z,-0.90
2018-12-14T16:43:20.942Z,-0.90
2018-12-14T16:45:55.529Z,-0.90
2018-12-14T16:48:30.413Z,-0.90
2018-12-14T16:51:05.601Z,-0.80
2018-12-14T16:53:45.488Z,-0.80
2018-12-14T16:56:19.913Z,-0.90
2018-12-14T16:58:54.765Z,-0.90
2018-12-14T17:01:29.244Z,-0.90
2018-12-14T17:04:04.748Z,-0.80
2018-12-14T17:06:39.159Z,-0.90
2018-12-14T17:09:13.632Z,-0.90
2018-12-14T17:11:48.344Z,-0.90
2018-12-14T17:14:23.117Z,-0.90
2018-12-14T17:16:57.595Z,-0.90
2018-12-14T17:19:31.980Z,-0.80
2018-12-14T17:22:06.429Z,-0.80
2018-12-14T17:24:41.152Z,-0.80
2018-12-14T17:27:15.753Z,-0.80
2018-12-14T17:29:50.364Z,-0.80
2018-12-14T17:32:25.002Z,-0.80
2018-12-14T17:34:59.700Z,-0.90
2018-12-14T17:37:34.218Z,-0.80
2018-12-14T17:40:08.887Z,-0.90
2018-12-14T17:42:43.556Z,-0.90
2018-12-14T17:45:17.973Z,-0.90
2018-12-14T17:47:52.425Z,-0.80
2018-12-14T17:50:27.053Z,-0.90
2018-12-14T17:53:01.627Z,-0.90
2018-12-14T17:55:36.092Z,-0.90
2018-12-14T17:58:10.691Z,-0.90
2018-12-14T18:00:45.000Z,-0.90
2018-12-14T18:03:19.594Z,-0.90
2018-12-14T18:05:54.061Z,-0.90
2018-12-14T18:08:28.500Z,-0.80
2018-12-14T18:11:03.093Z,-0.80
2018-12-14T18:13:37.621Z,-0.90
2018-12-14T18:16:12.114Z,-0.90
2018-12-14T18:18:46.923Z,-0.90
2018-12-14T18:21:21.663Z,-0.90
2018-12-14T18:23:56.151Z,-0.90
2018-12-14T18:26:30.551Z,-0.90
2018-12-14T18:29:05.012Z,-0.90
2018-12-14T18:31:39.470Z,-0.90
2018-12-14T18:34:14.252Z,-0.90
2018-12-14T18:36:52.589Z,-0.90
2018-12-14T18:39:27.302Z,-0.90
2018-12-14T18:42:01.748Z,-0.90
2018-12-14T18:44:36.393Z,-0.90
2018-12-14T18:47:10.957Z,-0.90
2018-12-14T18:49:45.602Z,-0.90
2018-12-14T18:52:20.116Z,-0.90
2018-12-14T18:54:54.452Z,-1.00
2018-12-14T18:57:28.864Z,-1.00
2018-12-14T19:00:03.988Z,-1.00
2018-12-14T19:02:38.449Z,-1.00
2018-12-14T19:05:13.174Z,-1.10
2018-12-14T19:07:47.760Z,-1.20
2018-12-14T19:10:22.063Z,-1.20
2018-12-14T19:12:56.527Z,-1.20
2018-12-14T19:15:31.368Z,-1.20
2018-12-14T19:18:05.806Z,-1.20
2018-12-14T19:20:40.150Z,-1.10
2018-12-14T19:23:19.543Z,-1.10
2018-12-14T19:25:51.290Z,-1.10
2018-12-14T19:28:26.947Z,-1.10
2018-12-14T19:31:02.335Z,-1.00
2018-12-14T19:33:36.950Z,-1.00
2018-12-14T19:36:11.630Z,-1.10
2018-12-14T19:38:46.199Z,-1.00
2018-12-14T19:41:21.747Z,-1.00
2018-12-14T19:43:56.141Z,-1.10
2018-12-14T19:46:30.837Z,-1.00
2018-12-14T19:49:05.400Z,-1.00
2018-12-14T19:51:39.879Z,-1.00
2018-12-14T19:54:14.945Z,-1.00
2018-12-14T19:56:50.055Z,-1.00
2018-12-14T19:59:24.788Z,-1.00
2018-12-14T20:01:59.366Z,-1.00
2018-12-14T20:04:33.932Z,-1.00
2018-12-14T20:08:38.238Z,-0.90
2018-12-14T20:11:12.815Z,-1.00
2018-12-14T20:13:47.391Z,-1.00
2018-12-14T20:16:22.102Z,-1.10
2018-12-14T20:18:56.510Z,-1.10
2018-12-14T20:21:31.065Z,-1.10
2018-12-14T20:24:05.797Z,-1.10
2018-12-14T20:26:40.263Z,-1.00
2018-12-14T20:29:14.880Z,-1.10
2018-12-14T20:31:49.520Z,-1.10
2018-12-14T20:34:25.476Z,-1.10
2018-12-14T20:37:00.964Z,-1.10
2018-12-14T20:39:35.612Z,-1.00
2018-12-14T20:42:10.387Z,-1.00
2018-12-14T20:44:44.931Z,-1.00
2018-12-14T20:47:19.313Z,-1.00
2018-12-14T20:49:53.740Z,-1.00
2018-12-14T20:52:28.383Z,-1.00
2018-12-14T20:55:02.974Z,-1.00
2018-12-14T20:57:37.505Z,-1.00
2018-12-14T21:00:13.125Z,-1.00
2018-12-14T21:02:47.676Z,-1.00
2018-12-14T21:05:22.251Z,-1.10
2018-12-14T21:07:56.667Z,-1.00
2018-12-14T21:10:31.173Z,-1.10
2018-12-14T21:13:05.800Z,-1.10
2018-12-14T21:15:40.220Z,-1.10
2018-12-14T21:18:14.932Z,-1.10
2018-12-14T21:20:49.462Z,-1.10
2018-12-14T21:23:24.197Z,-1.10
2018-12-14T21:25:58.459Z,-1.10
2018-12-14T21:28:33.111Z,-1.10
2018-12-14T21:31:07.623Z,-1.10
2018-12-14T21:33:42.077Z,-1.10
2018-12-14T21:36:16.541Z,-1.10
2018-12-14T21:38:51.246Z,-1.10
2018-12-14T21:41:25.991Z,-1.10
2018-12-14T21:44:00.656Z,-1.20
2018-12-14T21:46:35.225Z,-1.20
2018-12-14T21:49:10.878Z,-1.20
2018-12-14T21:51:45.533Z,-1.20
2018-12-14T21:54:20.122Z,-1.10
2018-12-14T21:56:54.468Z,-1.20
2018-12-14T21:59:30.244Z,-1.20
2018-12-14T22:02:05.252Z,-1.20
2018-12-14T22:04:39.704Z,-1.20
2018-12-14T22:07:14.418Z,-1.20
2018-12-14T22:09:48.836Z,-1.10
2018-12-14T22:12:23.596Z,-1.10
2018-12-14T22:14:58.361Z,-1.10
2018-12-14T22:17:33.407Z,-1.10
2018-12-14T22:20:08.242Z,-1.10
2018-12-14T22:22:43.059Z,-1.10
2018-12-14T22:25:17.794Z,-1.10
2018-12-14T22:27:52.500Z,-1.10
2018-12-14T22:30:27.369Z,-1.10
2018-12-14T22:33:02.089Z,-1.20
2018-12-14T22:35:36.899Z,-1.20
2018-12-14T22:38:11.597Z,-1.30
2018-12-14T22:40:46.373Z,-1.40
2018-12-14T22:43:20.788Z,-1.40
2018-12-14T22:45:55.157Z,-1.40
2018-12-14T22:48:29.497Z,-1.40
2018-12-14T22:51:04.101Z,-1.40
2018-12-14T22:53:38.690Z,-1.50
2018-12-14T22:56:13.076Z,-1.50
2018-12-14T22:58:47.607Z,-1.50
2018-12-14T23:01:22.010Z,-1.50
2018-12-14T23:03:56.431Z,-1.40
2018-12-14T23:06:30.717Z,-1.40
2018-12-14T23:09:06.899Z,-1.40
2018-12-14T23:11:41.329Z,-1.30
2018-12-14T23:14:15.963Z,-1.30
2018-12-14T23:16:52.442Z,-1.30
2018-12-14T23:19:27.418Z,-1.20
2018-12-14T23:22:02.266Z,-1.20
2018-12-14T23:24:36.936Z,-1.20
2018-12-14T23:27:11.298Z,-1.10
2018-12-14T23:29:45.768Z,-1.10
2018-12-14T23:32:20.064Z,-1.10
2018-12-14T23:34:54.288Z,-1.10
2018-12-14T23:37:28.795Z,-1.10
2018-12-14T23:40:03.361Z,-1.20
2018-12-14T23:42:37.780Z,-1.20
2018-12-14T23:45:12.284Z,-1.20
2018-12-14T23:47:46.640Z,-1.20
2018-12-14T23:50:21.073Z,-1.20
2018-12-14T23:52:55.410Z,-1.20
2018-12-14T23:55:29.803Z,-1.20
2018-12-14T23:58:04.304Z,-1.20
